Time;durP1;ratioP1;P1;durP2;ratioP2;P2;SDS_P1;SDS_P2;PMS_P1;PMS_P2;Temp;Humidity;BMP_temperature;BMP_pressure;BME280_temperature;BME280_humidity;BME280_pressure;Samples;Min_cycle;Max_cycle;Signal;HPM_P1;HPM_P2
2022/11/15 00:01:06;;;;;;;14.70;8.90;;;;;;;6.80;93.05;100756.69;5033243;28;20408;-78
2022/11/15 00:03:31;;;;;;;16.55;9.13;;;;;;;6.83;92.49;100754.06;5034962;28;20025;-77
2022/11/15 00:06:01;;;;;;;15.65;9.45;;;;;;;6.85;92.86;100752.31;5031931;28;20112;-77
2022/11/15 00:08:30;;;;;;;16.90;8.70;;;;;;;6.87;92.95;100747.13;5033071;28;20057;-77
2022/11/15 00:10:57;;;;;;;16.73;8.60;;;;;;;6.91;93.28;100751.38;5032652;28;20091;-77
2022/11/15 00:13:22;;;;;;;17.48;9.23;;;;;;;6.92;93.26;100747.91;5033653;28;20056;-77
2022/11/15 00:15:48;;;;;;;17.63;9.25;;;;;;;6.95;93.90;100745.31;5014829;28;20029;-77
2022/11/15 00:18:14;;;;;;;13.50;8.52;;;;;;;6.99;93.85;100746.97;5034325;28;20025;-78
2022/11/15 00:20:39;;;;;;;17.02;9.35;;;;;;;7.01;94.31;100747.78;5031918;28;20075;-77
2022/11/15 00:23:06;;;;;;;17.88;8.82;;;;;;;7.04;94.29;100742.59;5029529;28;20029;-77
2022/11/15 00:25:32;;;;;;;16.98;9.07;;;;;;;7.08;94.27;100739.09;5033202;28;20029;-77
2022/11/15 00:27:58;;;;;;;16.65;8.95;;;;;;;7.11;94.42;100754.59;5031555;28;20052;-77
2022/11/15 00:30:23;;;;;;;15.45;9.57;;;;;;;7.15;94.50;100745.03;5030329;28;20037;-77
2022/11/15 00:32:49;;;;;;;15.45;9.30;;;;;;;7.18;94.54;100738.97;5024442;28;20041;-77
2022/11/15 00:35:14;;;;;;;16.13;9.38;;;;;;;7.23;94.41;100738.03;5030989;28;20095;-77
2022/11/15 00:37:39;;;;;;;18.02;9.15;;;;;;;7.28;94.77;100740.56;5026076;28;20034;-77
2022/11/15 00:40:05;;;;;;;18.08;9.30;;;;;;;7.31;95.09;100739.66;5030843;28;20037;-77
2022/11/15 00:42:30;;;;;;;16.25;9.73;;;;;;;7.35;94.51;100736.16;5030132;28;20041;-77
2022/11/15 00:44:56;;;;;;;15.90;9.73;;;;;;;7.40;95.12;100737.78;5029483;28;20072;-77
2022/11/15 00:47:21;;;;;;;14.93;9.65;;;;;;;7.45;95.10;100732.53;5028697;28;20095;-77
2022/11/15 00:49:46;;;;;;;16.45;9.88;;;;;;;7.47;95.43;100724.78;5030206;28;20028;-77
2022/11/15 00:52:11;;;;;;;15.57;9.40;;;;;;;7.50;95.20;100727.31;5031631;28;20025;-77
2022/11/15 00:54:37;;;;;;;15.93;9.32;;;;;;;7.53;95.27;100727.25;5029510;28;20037;-77
2022/11/15 00:57:02;;;;;;;15.10;9.02;;;;;;;7.55;94.88;100728.09;5029979;28;20134;-77
2022/11/15 00:59:27;;;;;;;14.73;9.02;;;;;;;7.59;94.83;100724.59;5026874;28;20033;-77
2022/11/15 01:01:53;;;;;;;14.63;8.75;;;;;;;7.63;94.80;100720.22;5028572;28;20517;-78
2022/11/15 01:04:19;;;;;;;13.60;8.52;;;;;;;7.64;95.27;100717.59;5031131;28;20025;-77
2022/11/15 01:06:45;;;;;;;15.52;9.50;;;;;;;7.68;94.73;100719.28;5031786;28;20040;-77
2022/11/15 01:09:10;;;;;;;13.45;8.52;;;;;;;7.71;95.00;100715.78;5026928;28;20116;-77
2022/11/15 01:11:35;;;;;;;14.27;8.57;;;;;;;7.73;95.29;100722.63;5031122;28;20079;-78
2022/11/15 01:14:00;;;;;;;16.90;9.48;;;;;;;7.77;94.85;100720.00;5028783;28;20080;-77
2022/11/15 01:16:26;;;;;;;14.45;9.40;;;;;;;7.81;95.23;100721.66;5030628;28;20037;-77
2022/11/15 01:18:51;;;;;;;13.60;9.02;;;;;;;7.83;95.14;100719.91;5030246;28;20032;-78
2022/11/15 01:21:18;;;;;;;16.73;9.30;;;;;;;7.83;95.23;100707.81;5032664;28;20028;-78
2022/11/15 01:23:44;;;;;;;15.45;8.75;;;;;;;7.85;95.02;100710.38;5023678;28;20029;-77
2022/11/15 01:26:12;;;;;;;16.23;8.77;;;;;;;7.86;95.32;100707.75;5025611;28;20017;-77
2022/11/15 01:28:39;;;;;;;15.88;9.10;;;;;;;7.87;95.14;100712.06;5031171;28;20361;-77
2022/11/15 01:31:10;;;;;;;14.85;9.18;;;;;;;7.89;95.65;100704.25;5027090;28;20477;-77
2022/11/15 01:33:38;;;;;;;15.32;9.05;;;;;;;7.89;95.56;100689.56;5023183;28;20366;-77
2022/11/15 01:36:05;;;;;;;15.35;8.73;;;;;;;7.93;95.52;100698.13;5026116;28;20385;-77
2022/11/15 01:38:30;;;;;;;15.50;9.10;;;;;;;7.93;95.39;100685.19;5026207;28;20022;-77
2022/11/15 01:40:55;;;;;;;16.75;9.07;;;;;;;7.96;95.68;100682.56;5016757;28;20606;-77
2022/11/15 01:43:27;;;;;;;15.45;9.23;;;;;;;7.98;95.90;100691.16;5024611;28;20164;-78
2022/11/15 01:46:05;;;;;;;16.73;9.70;;;;;;;8.00;96.17;100684.22;5018583;28;20492;-77
2022/11/15 01:48:35;;;;;;;13.55;8.88;;;;;;;8.01;96.18;100682.47;5021958;28;20033;-78
2022/11/15 01:51:08;;;;;;;15.82;9.07;;;;;;;8.03;96.47;100688.47;5029086;28;20131;-77
2022/11/15 01:53:35;;;;;;;14.90;8.93;;;;;;;8.04;96.67;100682.41;5031656;28;20072;-77
2022/11/15 01:56:04;;;;;;;14.00;8.43;;;;;;;8.05;96.59;100692.75;5031002;28;21979;-78
2022/11/15 01:58:29;;;;;;;14.63;9.10;;;;;;;8.07;96.44;100684.09;5030765;28;20040;-78
2022/11/15 02:00:55;;;;;;;14.07;9.23;;;;;;;8.07;96.52;100677.19;5018316;28;20427;-78
2022/11/15 02:03:25;;;;;;;15.23;9.63;;;;;;;8.10;96.66;100684.91;5028649;28;20034;-77
2022/11/15 02:05:51;;;;;;;14.65;9.40;;;;;;;8.12;96.90;100687.47;5026834;28;20057;-78
2022/11/15 02:08:19;;;;;;;15.02;9.43;;;;;;;8.14;96.73;100688.28;5016063;28;20120;-77
2022/11/15 02:10:46;;;;;;;15.85;9.75;;;;;;;8.16;97.06;100689.13;5014998;28;20025;-77
2022/11/15 02:13:13;;;;;;;14.48;9.55;;;;;;;8.19;97.52;100681.28;5018779;28;20503;-78
2022/11/15 02:15:50;;;;;;;16.20;9.15;;;;;;;8.21;97.93;100679.50;4996430;28;20034;-78
2022/11/15 02:18:38;;;;;;;14.95;9.05;;;;;;;8.25;98.31;100667.38;5028815;28;20321;-78
2022/11/15 02:21:39;;;;;;;13.13;8.32;;;;;;;8.26;98.09;100662.13;5026051;28;20030;-78
2022/11/15 02:24:44;;;;;;;14.02;8.63;;;;;;;8.29;98.18;100659.50;5026113;28;20022;-78
2022/11/15 02:27:31;;;;;;;13.55;8.43;;;;;;;8.32;98.32;100659.44;5029827;28;20033;-78
2022/11/15 02:30:03;;;;;;;13.52;8.90;;;;;;;8.35;98.16;100654.19;5047224;28;20045;-78
2022/11/15 02:32:42;;;;;;;15.05;9.20;;;;;;;8.37;98.62;100655.91;5028069;28;20037;-77
2022/11/15 02:35:29;;;;;;;16.20;9.38;;;;;;;8.39;98.61;100660.16;5031325;28;20396;-77
2022/11/15 02:38:06;;;;;;;15.32;9.27;;;;;;;8.42;98.68;100660.13;5033170;28;20030;-77
2022/11/15 02:40:53;;;;;;;16.50;9.00;;;;;;;8.44;98.84;100647.97;5033485;28;20033;-78
2022/11/15 02:46:21;;;;;;;13.68;8.07;;;;;;;8.48;98.46;100661.75;5019452;28;20040;-78
2022/11/15 02:48:49;;;;;;;13.45;8.60;;;;;;;8.51;98.57;100653.94;5026094;28;20487;-78
2022/11/15 02:51:15;;;;;;;14.13;9.45;;;;;;;8.53;98.93;100646.97;5026648;28;20053;-77
2022/11/15 02:53:40;;;;;;;15.20;9.35;;;;;;;8.57;99.19;100651.19;5031184;28;20025;-78
2022/11/15 02:56:09;;;;;;;18.40;9.93;;;;;;;8.58;99.25;100646.88;5033825;28;20504;-78
2022/11/15 02:58:57;;;;;;;15.27;9.02;;;;;;;8.61;99.43;100645.06;5035699;28;20111;-78
2022/11/15 03:01:50;;;;;;;15.48;9.52;;;;;;;8.63;99.55;100643.28;5023175;28;20057;-78
2022/11/15 03:04:33;;;;;;;14.18;8.70;;;;;;;8.64;99.63;100645.00;5029785;28;20447;-78
2022/11/15 03:07:32;;;;;;;13.88;8.95;;;;;;;8.68;99.58;100639.75;5031639;28;20075;-78
2022/11/15 03:10:25;;;;;;;14.45;8.77;;;;;;;8.71;99.80;100639.69;5026516;28;20487;-77
2022/11/15 03:13:15;;;;;;;15.65;9.35;;;;;;;8.73;99.81;100633.59;5022554;28;20057;-78
2022/11/15 03:15:56;;;;;;;14.98;8.55;;;;;;;8.75;99.69;100631.81;5027555;28;20040;-78
2022/11/15 03:18:38;;;;;;;15.13;8.93;;;;;;;8.78;99.73;100621.38;5031000;28;20084;-78
2022/11/15 03:21:06;;;;;;;;;;;;;;;8.79;98.79;100632.59;5033279;28;20040;-78
2022/11/15 03:23:33;;;;;;;12.43;8.00;;;;;;;8.81;99.36;100621.28;5029200;28;19913;-78
2022/11/15 03:26:00;;;;;;;15.05;8.90;;;;;;;8.85;99.88;100622.09;5031872;28;20108;-78
2022/11/15 03:28:33;;;;;;;15.07;9.63;;;;;;;8.84;99.91;100630.75;5018909;28;20029;-78
2022/11/15 03:31:46;;;;;;;15.20;9.63;;;;;;;8.86;100.00;100634.19;5023320;28;20104;-78
2022/11/15 03:33:50;;;;;;;17.77;10.13;;;;;;;8.90;100.00;100635.78;5007044;28;20037;-78
2022/11/15 03:36:16;;;;;;;16.27;9.77;;;;;;;8.91;100.00;100640.09;5030040;28;20067;-78
2022/11/15 03:38:44;;;;;;;15.02;9.50;;;;;;;8.92;100.00;100636.63;5030914;28;20053;-78
2022/11/15 03:41:22;;;;;;;15.60;9.93;;;;;;;8.95;100.00;100644.34;5029534;28;20037;-78
2022/11/15 03:43:56;;;;;;;13.77;8.95;;;;;;;8.99;100.00;100644.28;5031304;28;20496;-78
2022/11/15 03:46:28;;;;;;;13.98;8.88;;;;;;;9.01;100.00;100639.91;5011830;28;20027;-78
2022/11/15 03:49:03;;;;;;;19.20;9.18;;;;;;;9.02;100.00;100634.66;5027934;28;20038;-78
2022/11/15 03:51:29;;;;;;;14.75;9.07;;;;;;;9.05;100.00;100633.75;5025571;28;20037;-78
2022/11/15 03:53:54;;;;;;;18.17;10.07;;;;;;;9.08;100.00;100633.66;5032975;28;20033;-78
2022/11/15 03:56:20;;;;;;;16.45;10.25;;;;;;;9.11;100.00;100633.59;5030316;28;20504;-78
2022/11/15 03:58:45;;;;;;;12.75;9.10;;;;;;;9.13;100.00;100633.59;5019164;28;20025;-78
2022/11/15 04:01:10;;;;;;;16.30;10.30;;;;;;;9.16;100.00;100633.50;5021759;28;20111;-78
2022/11/15 04:03:35;;;;;;;16.15;10.55;;;;;;;9.18;100.00;100630.00;5034569;28;20068;-78
2022/11/15 04:06:01;;;;;;;16.10;9.25;;;;;;;9.21;100.00;100635.13;5029674;28;20033;-78
2022/11/15 04:08:26;;;;;;;18.63;9.98;;;;;;;9.23;100.00;100635.91;5015987;28;20373;-78
2022/11/15 04:10:51;;;;;;;18.55;10.20;;;;;;;9.26;100.00;100635.00;5029263;28;20040;-78
2022/11/15 04:13:16;;;;;;;17.40;10.40;;;;;;;9.27;100.00;100634.13;5014028;28;20112;-77
2022/11/15 04:15:42;;;;;;;18.10;10.80;;;;;;;9.29;100.00;100631.47;5031121;28;20499;-78
2022/11/15 04:18:07;;;;;;;20.45;10.50;;;;;;;9.30;100.00;100633.19;5028478;28;20084;-78
2022/11/15 04:26:05;;;;;;;16.35;9.90;;;;;;;9.32;100.00;100634.00;5015511;28;20080;-78
2022/11/15 04:28:31;;;;;;;16.05;10.25;;;;;;;9.33;100.00;100633.13;5030840;28;20415;-78
2022/11/15 04:30:56;;;;;;;15.90;10.15;;;;;;;9.34;100.00;100637.41;5012686;28;20091;-78
2022/11/15 04:33:23;;;;;;;17.88;9.82;;;;;;;9.34;100.00;100625.28;5026084;28;20045;-78
2022/11/15 04:37:11;;;;;;;17.98;10.63;;;;;;;9.34;100.00;100629.63;5031101;28;20049;-78
2022/11/15 04:38:35;;;;;;;17.35;9.95;;;;;;;9.34;100.00;100632.22;5025383;28;20064;-78
2022/11/15 04:41:00;;;;;;;17.10;10.30;;;;;;;9.32;100.00;100629.66;5033764;28;20041;-78
2022/11/15 04:43:26;;;;;;;17.85;10.20;;;;;;;9.33;100.00;100633.13;5019408;28;20100;-78
2022/11/15 04:45:51;;;;;;;15.38;9.98;;;;;;;9.33;100.00;100633.13;5031445;28;20021;-78
2022/11/15 04:48:16;;;;;;;19.10;10.10;;;;;;;9.35;100.00;100641.72;5021220;28;20032;-78
2022/11/15 04:50:41;;;;;;;17.20;9.90;;;;;;;9.33;100.00;100638.31;5025559;28;20040;-78
2022/11/15 04:53:07;;;;;;;15.20;9.30;;;;;;;9.33;100.00;100640.91;5016920;28;20037;-78
2022/11/15 04:55:32;;;;;;;16.52;9.75;;;;;;;9.33;100.00;100643.50;5030236;28;20025;-78
2022/11/15 04:57:59;;;;;;;17.63;9.93;;;;;;;9.34;100.00;100637.41;5032194;28;20443;-78
2022/11/15 05:00:25;;;;;;;17.75;10.30;;;;;;;9.35;100.00;100636.53;5031812;28;20036;-78
2022/11/15 05:05:34;;;;;;;14.05;9.40;;;;;;;9.34;100.00;100629.63;5023345;28;20036;-78
2022/11/15 05:07:59;;;;;;;19.70;10.18;;;;;;;9.34;100.00;100632.22;5030914;28;20034;-78
2022/11/15 05:10:25;;;;;;;16.27;9.98;;;;;;;9.33;100.00;100631.34;5014115;28;20104;-78
2022/11/15 05:12:50;;;;;;;19.13;10.00;;;;;;;9.35;100.00;100626.13;5012545;28;20058;-78
2022/11/15 05:15:15;;;;;;;15.60;9.68;;;;;;;9.36;100.00;100625.25;5024476;28;20065;-78
2022/11/15 05:17:41;;;;;;;17.92;9.73;;;;;;;9.37;100.00;100629.56;5030679;28;20028;-78
2022/11/15 05:20:07;;;;;;;16.02;9.93;;;;;;;9.36;100.00;100628.69;5030055;28;20032;-78
2022/11/15 05:22:32;;;;;;;16.55;9.88;;;;;;;9.35;100.00;100626.13;5030688;28;20509;-78
2022/11/15 05:24:57;;;;;;;17.00;9.73;;;;;;;9.36;100.00;100627.84;5032412;28;20512;-78
2022/11/15 05:27:22;;;;;;;16.35;9.75;;;;;;;9.34;100.00;100625.28;5028188;28;20029;-78
2022/11/15 05:29:48;;;;;;;15.77;9.80;;;;;;;9.35;100.00;100624.38;5025743;28;20029;-78
2022/11/15 05:32:13;;;;;;;15.65;9.77;;;;;;;9.35;100.00;100619.19;5027343;28;20061;-78
2022/11/15 05:34:38;;;;;;;15.60;9.05;;;;;;;9.35;100.00;100620.94;5016991;28;20496;-78
2022/11/15 05:37:04;;;;;;;15.25;9.30;;;;;;;9.36;100.00;100620.06;5025498;28;20022;-78
2022/11/15 05:39:30;;;;;;;17.77;9.57;;;;;;;9.36;100.00;100612.28;5008610;28;20038;-79
2022/11/15 05:42:10;;;;;;;17.67;9.75;;;;;;;9.38;100.00;100618.28;5006435;28;20037;-78
2022/11/15 05:44:36;;;;;;;16.08;9.70;;;;;;;9.38;100.00;100618.28;5029895;28;20208;-78
2022/11/15 05:47:05;;;;;;;17.80;10.00;;;;;;;9.35;100.00;100600.19;5030736;28;20519;-78
2022/11/15 05:49:34;;;;;;;15.55;9.40;;;;;;;9.37;100.00;100612.22;5022671;28;20033;-78
2022/11/15 05:52:03;;;;;;;14.30;9.45;;;;;;;9.38;100.00;100620.88;5024442;28;20362;-78
2022/11/15 05:54:28;;;;;;;15.68;9.88;;;;;;;9.39;100.00;100622.59;5020959;28;20030;-78
2022/11/15 05:56:55;;;;;;;15.30;9.52;;;;;;;9.39;100.00;100622.59;5021995;28;20034;-78
2022/11/15 05:59:21;;;;;;;15.82;9.63;;;;;;;9.40;100.00;100630.31;5026654;28;20026;-78
2022/11/15 06:01:46;;;;;;;17.00;9.85;;;;;;;9.40;100.00;100621.66;5027662;28;20397;-78
2022/11/15 06:04:11;;;;;;;14.43;9.38;;;;;;;9.40;100.00;100624.25;5026478;28;20425;-78
2022/11/15 06:06:37;;;;;;;14.63;9.35;;;;;;;9.40;100.00;100616.47;5023758;28;20083;-78
2022/11/15 06:09:02;;;;;;;13.55;8.80;;;;;;;9.40;100.00;100621.66;5028637;28;20021;-78
2022/11/15 06:11:27;;;;;;;14.43;9.27;;;;;;;9.40;100.00;100624.25;5023534;28;20073;-78
2022/11/15 06:13:52;;;;;;;14.25;9.05;;;;;;;9.39;100.00;100617.41;5024290;28;20390;-78
2022/11/15 06:16:18;;;;;;;14.23;8.88;;;;;;;9.39;100.00;100623.44;5000174;28;20037;-78
2022/11/15 06:18:43;;;;;;;15.20;8.73;;;;;;;9.40;100.00;100625.13;5029060;28;20401;-78
2022/11/15 06:21:08;;;;;;;13.68;8.85;;;;;;;9.41;100.00;100628.56;5020752;28;20037;-78
2022/11/15 06:23:34;;;;;;;14.30;8.93;;;;;;;9.43;100.00;100625.97;5031555;28;20029;-78
2022/11/15 06:26:01;;;;;;;14.00;8.57;;;;;;;9.43;100.00;100624.19;5031718;28;20035;-78
2022/11/15 06:28:31;;;;;;;14.32;8.40;;;;;;;9.44;100.00;100625.91;5022654;28;20397;-78
2022/11/15 06:31:02;;;;;;;12.88;7.90;;;;;;;9.44;100.00;100631.09;5015454;28;20037;-79
2022/11/15 06:33:27;;;;;;;13.50;7.97;;;;;;;9.45;100.00;100642.34;5026705;28;20029;-79
2022/11/15 06:35:53;;;;;;;13.55;8.35;;;;;;;9.46;100.00;100647.50;5031193;28;20432;-79
2022/11/15 06:38:18;;;;;;;12.52;8.55;;;;;;;9.46;100.00;100647.50;5029371;28;20047;-79
2022/11/15 06:40:43;;;;;;;12.65;7.70;;;;;;;9.48;100.00;100652.69;5031022;28;20362;-78
2022/11/15 06:43:08;;;;;;;13.07;8.05;;;;;;;9.47;100.00;100649.22;5012255;28;20025;-79
2022/11/15 06:45:34;;;;;;;12.40;8.15;;;;;;;9.50;100.00;100659.53;5032219;28;20041;-78
2022/11/15 06:47:59;;;;;;;14.68;8.38;;;;;;;9.49;100.00;100655.22;5023753;28;20440;-78
2022/11/15 06:50:25;;;;;;;12.07;7.82;;;;;;;9.50;100.00;100656.94;5009406;28;20481;-79
2022/11/15 06:52:50;;;;;;;14.20;8.50;;;;;;;9.48;100.00;100653.50;5009620;28;20395;-79
2022/11/15 06:55:15;;;;;;;12.95;8.40;;;;;;;9.50;100.00;100662.13;5032430;28;20030;-79
2022/11/15 06:57:51;;;;;;;13.45;8.50;;;;;;;9.49;100.00;100663.00;5029790;28;20026;-79
2022/11/15 07:00:19;;;;;;;13.45;8.43;;;;;;;9.50;100.00;100672.50;5020785;28;20029;-79
2022/11/15 07:02:44;;;;;;;15.02;8.80;;;;;;;9.49;100.00;100669.94;5020978;28;20025;-79
2022/11/15 07:05:10;;;;;;;13.40;8.60;;;;;;;9.48;100.00;100666.50;5025998;28;20080;-79
2022/11/15 07:07:36;;;;;;;14.57;9.13;;;;;;;9.49;100.00;100663.00;5027108;28;20026;-79
2022/11/15 07:10:01;;;;;;;14.38;8.98;;;;;;;9.49;100.00;100663.00;5028695;28;20038;-78
2022/11/15 07:12:26;;;;;;;15.27;9.10;;;;;;;9.48;100.00;100669.09;5016989;28;20045;-79
2022/11/15 07:14:51;;;;;;;15.73;8.70;;;;;;;9.47;100.00;100667.38;5013843;28;20026;-79
2022/11/15 07:17:17;;;;;;;14.65;9.00;;;;;;;9.47;100.00;100667.38;5034370;28;20060;-79
2022/11/15 07:19:42;;;;;;;13.82;8.70;;;;;;;9.46;100.00;100668.28;5031424;28;20029;-79
2022/11/15 07:22:07;;;;;;;14.32;8.93;;;;;;;9.47;100.00;100671.75;5021912;28;20060;-79
2022/11/15 07:24:33;;;;;;;14.77;8.70;;;;;;;9.46;100.00;100676.06;5031866;28;20030;-79
2022/11/15 07:26:58;;;;;;;15.05;9.55;;;;;;;9.46;100.00;100676.06;5031926;28;20041;-78
2022/11/15 07:29:23;;;;;;;12.45;8.30;;;;;;;9.46;100.00;100678.66;5032797;28;20031;-78
2022/11/15 07:31:50;;;;;;;12.63;8.65;;;;;;;9.46;100.00;100683.84;5030164;28;20049;-79
2022/11/15 07:34:15;;;;;;;13.10;8.45;;;;;;;9.46;100.00;100680.41;5026274;28;20096;-78
2022/11/15 07:36:40;;;;;;;13.90;8.13;;;;;;;9.46;100.00;100681.25;5035683;28;20466;-79
2022/11/15 07:39:06;;;;;;;12.85;8.50;;;;;;;9.47;100.00;100687.31;5032263;28;20488;-78
2022/11/15 07:41:31;;;;;;;14.15;8.15;;;;;;;9.47;100.00;100685.56;5028223;28;20039;-77
2022/11/15 07:43:57;;;;;;;12.85;8.10;;;;;;;9.47;100.00;100688.16;5046267;28;20041;-78
2022/11/15 07:46:22;;;;;;;12.48;8.02;;;;;;;9.46;100.00;100683.84;5023321;28;20017;-78
2022/11/15 07:48:48;;;;;;;13.75;7.90;;;;;;;9.47;100.00;100677.78;5029933;28;20480;-78
2022/11/15 07:51:14;;;;;;;12.85;8.05;;;;;;;9.48;100.00;100674.28;5030299;28;20017;-78
2022/11/15 07:53:40;;;;;;;11.20;7.53;;;;;;;9.49;100.00;100673.41;5025586;28;20165;-78
2022/11/15 07:56:06;;;;;;;12.50;7.28;;;;;;;9.48;100.00;100669.09;5028384;28;20114;-78
2022/11/15 07:58:31;;;;;;;11.45;7.38;;;;;;;9.49;100.00;100676.00;5030533;28;20114;-78
2022/11/15 08:00:57;;;;;;;12.32;7.07;;;;;;;9.50;100.00;100669.03;5034982;28;20069;-78
2022/11/15 08:03:22;;;;;;;10.68;6.95;;;;;;;9.50;100.00;100667.31;5030143;28;20075;-78
2022/11/15 08:05:51;;;;;;;10.88;7.03;;;;;;;9.51;100.00;100674.22;5033033;28;20489;-78
2022/11/15 08:08:16;;;;;;;11.77;6.80;;;;;;;9.52;100.00;100670.72;5031297;28;20435;-78
2022/11/15 08:10:41;;;;;;;8.85;6.18;;;;;;;9.54;100.00;100670.69;5035086;28;20017;-78
2022/11/15 08:13:09;;;;;;;9.55;6.43;;;;;;;9.53;100.00;100675.03;5028151;28;20157;-79
2022/11/15 08:15:35;;;;;;;10.50;6.10;;;;;;;9.55;100.00;100680.19;5029614;28;20076;-78
2022/11/15 08:18:04;;;;;;;11.73;6.57;;;;;;;9.56;100.00;100684.50;5032186;28;20487;-78
2022/11/15 08:20:30;;;;;;;10.90;5.95;;;;;;;9.54;100.00;100681.94;5022833;28;20129;-79
2022/11/15 08:23:00;;;;;;;10.85;6.38;;;;;;;9.52;100.00;100683.72;5025783;28;20047;-79
2022/11/15 08:25:27;;;;;;;10.55;6.30;;;;;;;9.52;100.00;100680.25;5026294;28;20476;-79
2022/11/15 08:27:54;;;;;;;9.95;6.10;;;;;;;9.52;100.00;100688.03;5026696;28;20369;-77
2022/11/15 08:30:20;;;;;;;9.40;5.95;;;;;;;9.50;100.00;100680.28;5027385;28;20365;-78
2022/11/15 08:32:45;;;;;;;9.07;5.72;;;;;;;9.50;100.00;100682.91;5026333;28;20037;-79
2022/11/15 08:35:10;;;;;;;8.88;5.80;;;;;;;9.50;100.00;100677.69;5027733;28;20036;-79
2022/11/15 08:37:36;;;;;;;9.93;6.18;;;;;;;9.50;100.00;100682.91;5026345;28;20033;-79
2022/11/15 08:40:01;;;;;;;8.93;5.50;;;;;;;9.49;100.00;100681.19;5026820;28;20029;-79
2022/11/15 08:42:26;;;;;;;10.77;5.78;;;;;;;9.47;100.00;100680.38;5024916;28;20041;-79
2022/11/15 08:44:51;;;;;;;7.70;5.43;;;;;;;9.43;100.00;100681.31;5008939;28;20555;-79
2022/11/15 08:47:17;;;;;;;9.63;4.90;;;;;;;9.41;100.00;100672.72;5026249;28;20040;-79
2022/11/15 08:49:42;;;;;;;10.70;5.40;;;;;;;9.37;100.00;100671.09;5025655;28;20045;-79
2022/11/15 08:52:07;;;;;;;8.57;5.53;;;;;;;9.37;100.00;100671.09;5023327;28;20033;-79
2022/11/15 08:54:32;;;;;;;8.70;4.95;;;;;;;9.35;100.00;100672.88;5023899;28;20133;-79
2022/11/15 08:56:58;;;;;;;9.60;5.30;;;;;;;9.34;100.00;100661.63;5024686;28;20429;-79
2022/11/15 08:59:23;;;;;;;7.45;4.50;;;;;;;9.34;100.00;100656.44;5023070;28;20124;-78
2022/11/15 09:01:49;;;;;;;9.38;4.68;;;;;;;9.35;100.00;100654.69;5025473;28;20037;-79
2022/11/15 09:04:14;;;;;;;9.02;5.00;;;;;;;9.36;100.00;100653.81;5024213;28;20025;-79
2022/11/15 09:06:39;;;;;;;8.43;4.60;;;;;;;9.37;100.00;100651.16;5025102;28;20027;-79
2022/11/15 09:09:05;;;;;;;6.53;4.32;;;;;;;9.38;100.00;100654.63;5024465;28;20025;-79
2022/11/15 09:11:30;;;;;;;8.48;4.45;;;;;;;9.39;100.00;100653.75;5024030;28;20036;-78
2022/11/15 09:13:55;;;;;;;6.78;4.32;;;;;;;9.39;100.00;100659.78;5024534;28;20045;-79
2022/11/15 09:16:21;;;;;;;6.45;4.35;;;;;;;9.41;99.97;100655.41;5026405;28;20033;-79
2022/11/15 09:18:46;;;;;;;8.95;4.50;;;;;;;9.41;99.97;100647.63;5026281;28;20383;-79
2022/11/15 09:21:11;;;;;;;6.85;4.28;;;;;;;9.43;99.91;100651.91;5028100;28;20398;-79
2022/11/15 09:23:37;;;;;;;9.23;5.00;;;;;;;9.43;99.89;100632.00;5027436;28;20358;-78
2022/11/15 09:26:04;;;;;;;7.18;4.35;;;;;;;9.43;99.64;100632.00;5023827;28;20609;-78
2022/11/15 09:28:31;;;;;;;5.72;4.05;;;;;;;9.45;99.83;100627.63;5008504;28;20032;-78
2022/11/15 09:31:00;;;;;;;6.18;3.97;;;;;;;9.47;99.54;100623.25;5026824;28;20102;-78
2022/11/15 09:33:26;;;;;;;5.80;3.67;;;;;;;9.51;99.64;100621.41;5023376;28;20036;-78
2022/11/15 09:35:52;;;;;;;5.97;3.70;;;;;;;9.52;99.32;100613.59;5027060;28;20040;-78
2022/11/15 09:38:18;;;;;;;5.38;3.33;;;;;;;9.52;98.80;100607.53;5024870;28;20120;-79
2022/11/15 09:40:43;;;;;;;5.68;3.90;;;;;;;9.54;98.44;100611.81;5025458;28;20037;-78
2022/11/15 09:43:08;;;;;;;6.20;4.00;;;;;;;9.56;97.86;100615.19;5024572;28;20033;-79
2022/11/15 09:46:11;;;;;;;5.88;3.40;;;;;;;9.57;98.01;100616.06;5023339;28;20436;-78
2022/11/15 09:48:52;;;;;;;6.80;3.80;;;;;;;9.60;97.46;100617.72;5023258;28;20060;-78
2022/11/15 09:51:26;;;;;;;6.88;3.80;;;;;;;9.61;97.05;100616.84;5006447;28;20033;-78
2022/11/15 09:54:09;;;;;;;6.47;3.90;;;;;;;9.62;96.47;100619.41;5022935;28;20057;-77
2022/11/15 09:56:37;;;;;;;5.88;3.55;;;;;;;9.62;96.34;100609.03;5023564;28;20032;-78
2022/11/15 09:59:37;;;;;;;5.47;3.10;;;;;;;9.64;95.94;100607.25;5021509;28;20032;-78
2022/11/15 10:02:21;;;;;;;4.50;2.78;;;;;;;9.67;96.00;100607.13;5023205;28;20431;-78
2022/11/15 10:04:47;;;;;;;6.60;2.72;;;;;;;9.70;95.97;100607.06;5024712;28;20047;-78
2022/11/15 10:07:22;;;;;;;5.63;2.83;;;;;;;9.71;94.82;100607.94;5025370;28;20034;-78
2022/11/15 10:09:52;;;;;;;4.35;2.58;;;;;;;9.74;95.04;100602.63;5006733;28;20120;-79
2022/11/15 10:12:18;;;;;;;4.43;2.90;;;;;;;9.74;94.68;100599.19;5024885;28;20045;-79
2022/11/15 10:14:46;;;;;;;4.45;2.63;;;;;;;9.76;94.48;100595.66;5024649;28;20034;-78
2022/11/15 10:17:26;;;;;;;4.28;2.53;;;;;;;9.80;94.88;100596.44;5022856;28;20025;-79
2022/11/15 10:20:15;;;;;;;5.75;2.55;;;;;;;9.82;93.77;100586.88;5023975;28;20034;-79
2022/11/15 10:22:50;;;;;;;2.67;2.00;;;;;;;9.79;92.53;100585.19;5023485;28;20040;-79
2022/11/15 10:25:23;;;;;;;4.43;2.50;;;;;;;9.81;92.10;100582.56;5023941;28;20057;-78
2022/11/15 10:28:09;;;;;;;4.68;2.38;;;;;;;9.86;92.09;100585.88;5023633;28;20095;-78
2022/11/15 10:30:40;;;;;;;3.65;1.83;;;;;;;9.90;90.94;100573.69;5023132;28;20120;-78
2022/11/15 10:33:35;;;;;;;4.07;1.65;;;;;;;9.94;90.60;100575.28;5024526;28;20039;-79
2022/11/15 10:36:12;;;;;;;3.78;1.70;;;;;;;9.97;89.19;100583.84;5024297;28;20041;-78
2022/11/15 10:38:50;;;;;;;4.07;1.75;;;;;;;9.99;88.67;100581.22;5021711;28;20508;-78
2022/11/15 10:41:26;;;;;;;3.70;1.63;;;;;;;9.98;87.71;100571.69;5022284;28;20044;-79
2022/11/15 10:44:06;;;;;;;2.28;1.60;;;;;;;9.97;87.28;100570.88;5023869;28;20041;-78
2022/11/15 10:46:32;;;;;;;5.55;1.55;;;;;;;9.95;87.07;100561.38;5023979;28;20104;-78
2022/11/15 10:49:19;;;;;;;2.95;1.52;;;;;;;9.93;86.41;100550.19;5020845;28;20033;-77
2022/11/15 10:51:47;;;;;;;3.83;1.40;;;;;;;9.86;85.00;100555.56;5024931;28;20038;-78
2022/11/15 10:54:20;;;;;;;3.90;1.30;;;;;;;9.86;84.50;100554.69;5026974;28;20037;-78
2022/11/15 10:56:50;;;;;;;3.00;1.42;;;;;;;9.85;84.04;100553.84;5031309;28;20068;-78
2022/11/15 10:59:24;;;;;;;3.28;1.48;;;;;;;9.87;82.68;100553.81;5027701;28;20034;-78
2022/11/15 11:01:49;;;;;;;1.77;1.10;;;;;;;9.87;83.55;100544.28;5026346;28;20045;-78
2022/11/15 11:04:14;;;;;;;3.00;1.23;;;;;;;9.90;83.92;100551.13;5027537;28;20498;-78
2022/11/15 11:06:49;;;;;;;3.88;1.30;;;;;;;9.91;82.64;100547.63;5030609;28;20033;-79
2022/11/15 11:09:38;;;;;;;3.58;1.20;;;;;;;9.93;82.97;100545.84;5026528;28;20040;-78
2022/11/15 11:12:05;;;;;;;4.80;1.30;;;;;;;9.94;81.44;100547.56;5010159;28;20091;-77
2022/11/15 11:14:33;;;;;;;2.90;1.48;;;;;;;9.97;82.18;100536.22;5027240;28;20036;-77
2022/11/15 11:17:23;;;;;;;4.40;1.65;;;;;;;10.01;83.02;100530.03;5028514;28;20082;-78
2022/11/15 11:19:54;;;;;;;4.03;1.30;;;;;;;10.04;82.34;100532.56;5026658;28;20415;-78
2022/11/15 11:22:48;;;;;;;3.70;1.47;;;;;;;10.10;83.94;100521.97;5029136;28;20029;-77
2022/11/15 11:25:32;;;;;;;3.97;1.55;;;;;;;10.17;82.65;100518.31;5024888;28;21361;-78
2022/11/15 11:28:19;;;;;;;3.63;1.15;;;;;;;10.25;83.75;100510.28;5027191;28;20037;-79
2022/11/15 11:31:00;;;;;;;4.00;1.20;;;;;;;10.30;81.92;100512.72;5007692;28;20029;-79
2022/11/15 11:33:36;;;;;;;2.78;1.20;;;;;;;10.32;82.43;100500.53;5024531;28;20098;-78
2022/11/15 11:36:15;;;;;;;3.60;1.33;;;;;;;10.35;80.92;100503.06;5026479;28;20061;-78
2022/11/15 11:38:43;;;;;;;3.53;1.10;;;;;;;10.35;80.33;100500.47;5026519;28;20457;-79
2022/11/15 11:41:47;;;;;;;4.50;1.45;;;;;;;10.38;80.96;100494.31;5026768;28;20120;-79
2022/11/15 11:44:24;;;;;;;2.55;1.15;;;;;;;10.36;80.55;100483.97;5025917;28;20046;-77